sensor_id;sensor_type;location;lat;lon;timestamp;temperature;humidity
10903;DHT22;5504;47.312;11.060;2023-06-10T00:00:43;16.70;77.20
10903;DHT22;5504;47.312;11.060;2023-06-10T00:03:10;16.70;77.20
10903;DHT22;5504;47.312;11.060;2023-06-10T00:05:36;16.70;77.00
10903;DHT22;5504;47.312;11.060;2023-06-10T00:08:04;16.70;76.80
10903;DHT22;5504;47.312;11.060;2023-06-10T00:10:34;16.70;76.80
10903;DHT22;5504;47.312;11.060;2023-06-10T00:13:04;16.70;77.10
10903;DHT22;5504;47.312;11.060;2023-06-10T00:15:30;16.60;76.80
10903;DHT22;5504;47.312;11.060;2023-06-10T00:17:56;16.50;77.00
10903;DHT22;5504;47.312;11.060;2023-06-10T00:20:22;16.50;77.40
10903;DHT22;5504;47.312;11.060;2023-06-10T00:22:52;16.40;77.50
10903;DHT22;5504;47.312;11.060;2023-06-10T00:25:18;16.30;78.00
10903;DHT22;5504;47.312;11.060;2023-06-10T00:27:44;16.30;78.20
10903;DHT22;5504;47.312;11.060;2023-06-10T00:30:10;16.20;78.20
10903;DHT22;5504;47.312;11.060;2023-06-10T00:32:37;16.10;79.20
10903;DHT22;5504;47.312;11.060;2023-06-10T00:35:03;16.00;78.60
10903;DHT22;5504;47.312;11.060;2023-06-10T00:37:29;16.00;79.40
10903;DHT22;5504;47.312;11.060;2023-06-10T00:39:56;16.00;79.60
10903;DHT22;5504;47.312;11.060;2023-06-10T00:42:21;16.00;79.50
10903;DHT22;5504;47.312;11.060;2023-06-10T00:44:50;15.90;80.00
10903;DHT22;5504;47.312;11.060;2023-06-10T00:47:16;15.90;80.00
10903;DHT22;5504;47.312;11.060;2023-06-10T00:49:42;16.00;79.60
10903;DHT22;5504;47.312;11.060;2023-06-10T00:52:08;15.90;79.40
10903;DHT22;5504;47.312;11.060;2023-06-10T00:54:36;15.90;79.50
10903;DHT22;5504;47.312;11.060;2023-06-10T00:57:02;15.80;79.50
10903;DHT22;5504;47.312;11.060;2023-06-10T00:59:31;15.80;79.80
10903;DHT22;5504;47.312;11.060;2023-06-10T01:01:58;15.70;79.70
10903;DHT22;5504;47.312;11.060;2023-06-10T01:04:24;15.80;79.80
10903;DHT22;5504;47.312;11.060;2023-06-10T01:07:05;15.80;79.50
10903;DHT22;5504;47.312;11.060;2023-06-10T01:12:21;15.70;79.80
10903;DHT22;5504;47.312;11.060;2023-06-10T01:14:52;15.60;80.30
10903;DHT22;5504;47.312;11.060;2023-06-10T01:17:18;15.50;80.40
10903;DHT22;5504;47.312;11.060;2023-06-10T01:19:52;15.50;80.90
10903;DHT22;5504;47.312;11.060;2023-06-10T01:22:18;15.40;81.10
10903;DHT22;5504;47.312;11.060;2023-06-10T01:24:44;15.30;81.30
10903;DHT22;5504;47.312;11.060;2023-06-10T01:27:13;15.30;81.40
10903;DHT22;5504;47.312;11.060;2023-06-10T01:29:52;15.40;81.60
10903;DHT22;5504;47.312;11.060;2023-06-10T01:32:43;15.30;81.80
10903;DHT22;5504;47.312;11.060;2023-06-10T01:35:10;15.30;82.20
10903;DHT22;5504;47.312;11.060;2023-06-10T01:37:38;15.30;82.10
10903;DHT22;5504;47.312;11.060;2023-06-10T01:40:05;15.40;82.00
10903;DHT22;5504;47.312;11.060;2023-06-10T01:42:32;15.30;82.20
10903;DHT22;5504;47.312;11.060;2023-06-10T01:44:58;15.30;82.00
10903;DHT22;5504;47.312;11.060;2023-06-10T01:47:24;15.20;82.30
10903;DHT22;5504;47.312;11.060;2023-06-10T01:49:50;15.10;82.00
10903;DHT22;5504;47.312;11.060;2023-06-10T01:52:15;15.00;82.80
10903;DHT22;5504;47.312;11.060;2023-06-10T01:54:41;14.90;82.80
10903;DHT22;5504;47.312;11.060;2023-06-10T01:57:07;14.90;82.90
10903;DHT22;5504;47.312;11.060;2023-06-10T01:59:33;15.00;83.00
10903;DHT22;5504;47.312;11.060;2023-06-10T02:01:58;15.00;83.10
10903;DHT22;5504;47.312;11.060;2023-06-10T02:04:24;15.00;83.10
10903;DHT22;5504;47.312;11.060;2023-06-10T02:06:50;15.00;83.00
10903;DHT22;5504;47.312;11.060;2023-06-10T02:09:16;15.00;83.20
10903;DHT22;5504;47.312;11.060;2023-06-10T02:11:43;14.90;83.00
10903;DHT22;5504;47.312;11.060;2023-06-10T02:14:09;15.00;83.10
10903;DHT22;5504;47.312;11.060;2023-06-10T02:16:35;14.90;83.40
10903;DHT22;5504;47.312;11.060;2023-06-10T02:19:00;14.90;83.70
10903;DHT22;5504;47.312;11.060;2023-06-10T02:21:26;14.80;83.90
10903;DHT22;5504;47.312;11.060;2023-06-10T02:23:52;14.70;83.90
10903;DHT22;5504;47.312;11.060;2023-06-10T02:26:18;14.60;84.50
10903;DHT22;5504;47.312;11.060;2023-06-10T02:28:43;14.70;85.00
10903;DHT22;5504;47.312;11.060;2023-06-10T02:31:09;14.80;85.00
10903;DHT22;5504;47.312;11.060;2023-06-10T02:33:35;14.80;84.70
10903;DHT22;5504;47.312;11.060;2023-06-10T02:36:01;14.70;84.50
10903;DHT22;5504;47.312;11.060;2023-06-10T02:38:26;14.70;84.40
10903;DHT22;5504;47.312;11.060;2023-06-10T02:40:52;14.70;85.00
10903;DHT22;5504;47.312;11.060;2023-06-10T02:43:18;14.60;84.70
10903;DHT22;5504;47.312;11.060;2023-06-10T02:45:43;14.50;84.40
10903;DHT22;5504;47.312;11.060;2023-06-10T02:48:09;14.40;84.90
10903;DHT22;5504;47.312;11.060;2023-06-10T02:50:35;14.40;85.30
10903;DHT22;5504;47.312;11.060;2023-06-10T02:53:01;14.50;85.30
10903;DHT22;5504;47.312;11.060;2023-06-10T02:55:26;14.50;85.60
10903;DHT22;5504;47.312;11.060;2023-06-10T02:57:53;14.50;85.50
10903;DHT22;5504;47.312;11.060;2023-06-10T03:00:20;14.50;85.80
10903;DHT22;5504;47.312;11.060;2023-06-10T03:02:46;14.50;86.00
10903;DHT22;5504;47.312;11.060;2023-06-10T03:05:12;14.60;86.10
10903;DHT22;5504;47.312;11.060;2023-06-10T03:07:38;14.50;85.60
10903;DHT22;5504;47.312;11.060;2023-06-10T03:10:06;14.40;85.70
10903;DHT22;5504;47.312;11.060;2023-06-10T03:12:32;14.40;86.00
10903;DHT22;5504;47.312;11.060;2023-06-10T03:14:57;14.50;86.10
10903;DHT22;5504;47.312;11.060;2023-06-10T03:17:23;14.50;85.60
10903;DHT22;5504;47.312;11.060;2023-06-10T03:19:49;14.40;85.80
10903;DHT22;5504;47.312;11.060;2023-06-10T03:22:17;14.20;85.80
10903;DHT22;5504;47.312;11.060;2023-06-10T03:24:43;14.20;86.30
10903;DHT22;5504;47.312;11.060;2023-06-10T03:27:12;14.10;86.60
10903;DHT22;5504;47.312;11.060;2023-06-10T03:29:39;14.20;86.90
10903;DHT22;5504;47.312;11.060;2023-06-10T03:32:05;14.20;86.90
10903;DHT22;5504;47.312;11.060;2023-06-10T03:34:31;14.20;86.80
10903;DHT22;5504;47.312;11.060;2023-06-10T03:36:57;14.10;86.60
10903;DHT22;5504;47.312;11.060;2023-06-10T03:39:23;14.10;86.90
10903;DHT22;5504;47.312;11.060;2023-06-10T03:41:50;14.10;87.50
10903;DHT22;5504;47.312;11.060;2023-06-10T03:44:15;14.20;88.10
10903;DHT22;5504;47.312;11.060;2023-06-10T03:46:41;14.20;87.80
10903;DHT22;5504;47.312;11.060;2023-06-10T03:49:07;14.10;87.80
10903;DHT22;5504;47.312;11.060;2023-06-10T03:51:32;14.10;87.60
10903;DHT22;5504;47.312;11.060;2023-06-10T03:53:58;14.10;88.20
10903;DHT22;5504;47.312;11.060;2023-06-10T03:56:24;14.10;88.40
10903;DHT22;5504;47.312;11.060;2023-06-10T03:58:51;14.10;88.30
10903;DHT22;5504;47.312;11.060;2023-06-10T04:01:16;14.10;87.90
10903;DHT22;5504;47.312;11.060;2023-06-10T04:03:46;14.30;88.30
10903;DHT22;5504;47.312;11.060;2023-06-10T04:06:14;14.30;88.20
10903;DHT22;5504;47.312;11.060;2023-06-10T04:08:41;14.40;87.80
10903;DHT22;5504;47.312;11.060;2023-06-10T04:11:08;14.40;88.40
10903;DHT22;5504;47.312;11.060;2023-06-10T04:13:34;14.40;88.40
10903;DHT22;5504;47.312;11.060;2023-06-10T04:16:00;14.40;88.90
10903;DHT22;5504;47.312;11.060;2023-06-10T04:18:26;14.40;88.40
10903;DHT22;5504;47.312;11.060;2023-06-10T04:20:51;14.40;89.00
10903;DHT22;5504;47.312;11.060;2023-06-10T04:23:17;14.40;88.40
10903;DHT22;5504;47.312;11.060;2023-06-10T04:25:43;14.40;87.80
10903;DHT22;5504;47.312;11.060;2023-06-10T04:28:09;14.50;88.20
10903;DHT22;5504;47.312;11.060;2023-06-10T04:30:35;14.60;88.60
10903;DHT22;5504;47.312;11.060;2023-06-10T04:33:00;14.60;88.90
10903;DHT22;5504;47.312;11.060;2023-06-10T04:35:26;14.70;89.50
10903;DHT22;5504;47.312;11.060;2023-06-10T04:37:53;14.90;89.70
10903;DHT22;5504;47.312;11.060;2023-06-10T04:40:19;15.10;89.50
10903;DHT22;5504;47.312;11.060;2023-06-10T04:42:45;15.20;88.60
10903;DHT22;5504;47.312;11.060;2023-06-10T04:45:11;15.40;87.60
10903;DHT22;5504;47.312;11.060;2023-06-10T04:47:37;15.50;87.30
10903;DHT22;5504;47.312;11.060;2023-06-10T04:50:04;15.70;87.30
10903;DHT22;5504;47.312;11.060;2023-06-10T04:52:30;15.80;87.40
10903;DHT22;5504;47.312;11.060;2023-06-10T04:54:57;16.00;86.70
10903;DHT22;5504;47.312;11.060;2023-06-10T04:57:23;16.10;86.00
10903;DHT22;5504;47.312;11.060;2023-06-10T04:59:49;16.30;86.90
10903;DHT22;5504;47.312;11.060;2023-06-10T05:02:15;16.40;87.10
10903;DHT22;5504;47.312;11.060;2023-06-10T05:04:41;16.60;86.40
10903;DHT22;5504;47.312;11.060;2023-06-10T05:07:07;16.80;86.00
10903;DHT22;5504;47.312;11.060;2023-06-10T05:09:32;17.00;85.70
10903;DHT22;5504;47.312;11.060;2023-06-10T05:11:58;17.00;81.70
10903;DHT22;5504;47.312;11.060;2023-06-10T05:14:24;17.20;83.50
10903;DHT22;5504;47.312;11.060;2023-06-10T05:16:50;17.00;80.20
10903;DHT22;5504;47.312;11.060;2023-06-10T05:19:16;17.20;81.30
10903;DHT22;5504;47.312;11.060;2023-06-10T05:21:41;17.50;82.60
10903;DHT22;5504;47.312;11.060;2023-06-10T05:24:07;17.50;79.10
10903;DHT22;5504;47.312;11.060;2023-06-10T05:26:33;17.50;78.30
10903;DHT22;5504;47.312;11.060;2023-06-10T05:29:03;17.30;78.80
10903;DHT22;5504;47.312;11.060;2023-06-10T05:31:29;17.70;80.70
10903;DHT22;5504;47.312;11.060;2023-06-10T05:33:55;17.60;79.00
10903;DHT22;5504;47.312;11.060;2023-06-10T05:36:21;17.70;79.80
10903;DHT22;5504;47.312;11.060;2023-06-10T05:38:46;18.30;80.80
10903;DHT22;5504;47.312;11.060;2023-06-10T05:41:12;18.80;79.20
10903;DHT22;5504;47.312;11.060;2023-06-10T05:43:38;19.20;79.00
10903;DHT22;5504;47.312;11.060;2023-06-10T05:46:04;19.60;75.80
10903;DHT22;5504;47.312;11.060;2023-06-10T05:48:29;19.80;74.50
10903;DHT22;5504;47.312;11.060;2023-06-10T05:50:55;19.40;74.10
10903;DHT22;5504;47.312;11.060;2023-06-10T05:53:21;19.90;73.80
10903;DHT22;5504;47.312;11.060;2023-06-10T05:55:46;20.00;72.50
10903;DHT22;5504;47.312;11.060;2023-06-10T05:58:14;20.30;72.50
10903;DHT22;5504;47.312;11.060;2023-06-10T06:00:40;20.40;71.10
10903;DHT22;5504;47.312;11.060;2023-06-10T06:03:07;20.70;72.70
10903;DHT22;5504;47.312;11.060;2023-06-10T06:05:36;20.00;68.60
10903;DHT22;5504;47.312;11.060;2023-06-10T06:08:10;20.00;70.60
10903;DHT22;5504;47.312;11.060;2023-06-10T06:10:36;20.30;69.50
10903;DHT22;5504;47.312;11.060;2023-06-10T06:13:02;20.40;68.00
10903;DHT22;5504;47.312;11.060;2023-06-10T06:15:28;20.80;68.40
10903;DHT22;5504;47.312;11.060;2023-06-10T06:17:53;21.20;69.70
10903;DHT22;5504;47.312;11.060;2023-06-10T06:20:20;21.70;69.30
10903;DHT22;5504;47.312;11.060;2023-06-10T06:22:45;22.00;66.00
10903;DHT22;5504;47.312;11.060;2023-06-10T06:25:11;22.20;68.70
10903;DHT22;5504;47.312;11.060;2023-06-10T06:27:37;22.50;65.00
10903;DHT22;5504;47.312;11.060;2023-06-10T06:30:03;22.20;61.20
10903;DHT22;5504;47.312;11.060;2023-06-10T06:32:29;22.40;64.50
10903;DHT22;5504;47.312;11.060;2023-06-10T06:34:55;22.40;66.20
10903;DHT22;5504;47.312;11.060;2023-06-10T06:37:24;22.50;62.70
10903;DHT22;5504;47.312;11.060;2023-06-10T06:39:51;22.80;65.60
10903;DHT22;5504;47.312;11.060;2023-06-10T06:42:17;23.20;64.10
10903;DHT22;5504;47.312;11.060;2023-06-10T06:44:43;22.70;62.90
10903;DHT22;5504;47.312;11.060;2023-06-10T06:47:08;22.70;62.30
10903;DHT22;5504;47.312;11.060;2023-06-10T06:49:34;22.40;60.00
10903;DHT22;5504;47.312;11.060;2023-06-10T06:52:00;22.30;64.50
10903;DHT22;5504;47.312;11.060;2023-06-10T06:54:25;22.20;64.90
10903;DHT22;5504;47.312;11.060;2023-06-10T06:56:51;22.80;62.90
10903;DHT22;5504;47.312;11.060;2023-06-10T06:59:17;22.80;62.80
10903;DHT22;5504;47.312;11.060;2023-06-10T07:01:45;23.30;60.90
10903;DHT22;5504;47.312;11.060;2023-06-10T07:04:11;23.50;62.90
10903;DHT22;5504;47.312;11.060;2023-06-10T07:06:37;23.90;63.10
10903;DHT22;5504;47.312;11.060;2023-06-10T07:09:04;23.70;58.80
10903;DHT22;5504;47.312;11.060;2023-06-10T07:11:30;23.70;60.90
10903;DHT22;5504;47.312;11.060;2023-06-10T07:13:56;24.10;61.50
10903;DHT22;5504;47.312;11.060;2023-06-10T07:16:22;24.40;61.20
10903;DHT22;5504;47.312;11.060;2023-06-10T07:18:48;25.00;61.20
10903;DHT22;5504;47.312;11.060;2023-06-10T07:21:13;25.20;58.70
10903;DHT22;5504;47.312;11.060;2023-06-10T07:23:42;25.10;57.80
10903;DHT22;5504;47.312;11.060;2023-06-10T07:26:08;25.60;61.20
10903;DHT22;5504;47.312;11.060;2023-06-10T07:28:37;25.10;55.10
10903;DHT22;5504;47.312;11.060;2023-06-10T07:31:03;25.00;55.20
10903;DHT22;5504;47.312;11.060;2023-06-10T07:33:28;24.70;56.10
10903;DHT22;5504;47.312;11.060;2023-06-10T07:35:54;24.00;56.20
10903;DHT22;5504;47.312;11.060;2023-06-10T07:38:20;24.90;60.50
10903;DHT22;5504;47.312;11.060;2023-06-10T07:40:46;24.80;56.20
10903;DHT22;5504;47.312;11.060;2023-06-10T07:43:12;25.50;59.80
10903;DHT22;5504;47.312;11.060;2023-06-10T07:45:40;26.10;58.40
10903;DHT22;5504;47.312;11.060;2023-06-10T07:48:06;26.50;55.00
10903;DHT22;5504;47.312;11.060;2023-06-10T07:50:32;26.60;57.10
10903;DHT22;5504;47.312;11.060;2023-06-10T07:52:58;27.10;56.60
10903;DHT22;5504;47.312;11.060;2023-06-10T07:55:23;27.60;54.40
10903;DHT22;5504;47.312;11.060;2023-06-10T07:57:52;27.40;51.80
10903;DHT22;5504;47.312;11.060;2023-06-10T08:00:18;26.10;54.50
10903;DHT22;5504;47.312;11.060;2023-06-10T08:02:44;26.50;52.70
10903;DHT22;5504;47.312;11.060;2023-06-10T08:05:09;27.30;55.70
10903;DHT22;5504;47.312;11.060;2023-06-10T08:07:35;27.40;54.10
10903;DHT22;5504;47.312;11.060;2023-06-10T08:10:02;27.70;56.70
10903;DHT22;5504;47.312;11.060;2023-06-10T08:12:27;27.50;52.00
10903;DHT22;5504;47.312;11.060;2023-06-10T08:14:53;27.20;54.30
10903;DHT22;5504;47.312;11.060;2023-06-10T08:17:20;27.50;54.80
10903;DHT22;5504;47.312;11.060;2023-06-10T08:19:46;28.00;53.70
10903;DHT22;5504;47.312;11.060;2023-06-10T08:22:12;28.10;52.50
10903;DHT22;5504;47.312;11.060;2023-06-10T08:24:38;26.90;50.70
10903;DHT22;5504;47.312;11.060;2023-06-10T08:27:03;26.90;51.10
10903;DHT22;5504;47.312;11.060;2023-06-10T08:29:29;27.70;53.70
10903;DHT22;5504;47.312;11.060;2023-06-10T08:31:57;28.80;54.10
10903;DHT22;5504;47.312;11.060;2023-06-10T08:34:23;28.40;49.80
10903;DHT22;5504;47.312;11.060;2023-06-10T08:36:49;28.00;51.80
10903;DHT22;5504;47.312;11.060;2023-06-10T08:39:19;27.70;52.10
10903;DHT22;5504;47.312;11.060;2023-06-10T08:42:14;28.20;53.70
10903;DHT22;5504;47.312;11.060;2023-06-10T08:44:36;27.10;49.50
10903;DHT22;5504;47.312;11.060;2023-06-10T08:47:09;27.80;50.70
10903;DHT22;5504;47.312;11.060;2023-06-10T08:49:38;28.10;53.10
10903;DHT22;5504;47.312;11.060;2023-06-10T08:52:07;28.00;53.50
10903;DHT22;5504;47.312;11.060;2023-06-10T08:54:33;27.60;49.00
10903;DHT22;5504;47.312;11.060;2023-06-10T08:57:05;27.20;50.10
10903;DHT22;5504;47.312;11.060;2023-06-10T08:59:31;27.20;52.60
10903;DHT22;5504;47.312;11.060;2023-06-10T09:01:58;28.40;53.20
10903;DHT22;5504;47.312;11.060;2023-06-10T09:04:24;27.20;53.10
10903;DHT22;5504;47.312;11.060;2023-06-10T09:06:51;28.50;52.90
10903;DHT22;5504;47.312;11.060;2023-06-10T09:09:18;28.00;50.70
10903;DHT22;5504;47.312;11.060;2023-06-10T09:11:45;27.80;48.70
10903;DHT22;5504;47.312;11.060;2023-06-10T09:14:11;27.80;51.90
10903;DHT22;5504;47.312;11.060;2023-06-10T09:16:42;28.40;51.40
10903;DHT22;5504;47.312;11.060;2023-06-10T09:19:07;28.40;49.20
10903;DHT22;5504;47.312;11.060;2023-06-10T09:21:34;28.70;49.80
10903;DHT22;5504;47.312;11.060;2023-06-10T09:24:04;29.60;48.70
10903;DHT22;5504;47.312;11.060;2023-06-10T09:26:30;29.80;51.70
10903;DHT22;5504;47.312;11.060;2023-06-10T09:29:06;29.50;47.30
10903;DHT22;5504;47.312;11.060;2023-06-10T09:31:37;29.50;49.70
10903;DHT22;5504;47.312;11.060;2023-06-10T09:34:07;30.00;50.80
10903;DHT22;5504;47.312;11.060;2023-06-10T09:36:34;30.40;51.20
10903;DHT22;5504;47.312;11.060;2023-06-10T09:39:01;31.10;51.00
10903;DHT22;5504;47.312;11.060;2023-06-10T09:41:34;30.70;48.10
10903;DHT22;5504;47.312;11.060;2023-06-10T09:44:01;29.10;47.00
10903;DHT22;5504;47.312;11.060;2023-06-10T09:46:31;28.50;49.30
10903;DHT22;5504;47.312;11.060;2023-06-10T09:49:00;28.50;48.40
10903;DHT22;5504;47.312;11.060;2023-06-10T09:51:26;28.40;53.20
10903;DHT22;5504;47.312;11.060;2023-06-10T09:53:52;28.60;50.30
10903;DHT22;5504;47.312;11.060;2023-06-10T09:56:19;28.40;50.60
10903;DHT22;5504;47.312;11.060;2023-06-10T09:58:46;28.40;52.60
10903;DHT22;5504;47.312;11.060;2023-06-10T10:01:13;29.20;53.80
10903;DHT22;5504;47.312;11.060;2023-06-10T10:03:48;30.00;51.40
10903;DHT22;5504;47.312;11.060;2023-06-10T10:06:15;30.60;50.90
10903;DHT22;5504;47.312;11.060;2023-06-10T10:08:41;31.10;49.60
10903;DHT22;5504;47.312;11.060;2023-06-10T10:11:07;31.30;47.30
10903;DHT22;5504;47.312;11.060;2023-06-10T10:13:34;31.50;49.40
10903;DHT22;5504;47.312;11.060;2023-06-10T10:16:06;31.90;49.20
10903;DHT22;5504;47.312;11.060;2023-06-10T10:18:32;32.30;47.80
10903;DHT22;5504;47.312;11.060;2023-06-10T10:21:03;32.00;44.90
10903;DHT22;5504;47.312;11.060;2023-06-10T10:23:36;32.50;49.00
10903;DHT22;5504;47.312;11.060;2023-06-10T10:26:07;32.90;45.20
10903;DHT22;5504;47.312;11.060;2023-06-10T10:28:41;31.60;46.90
10903;DHT22;5504;47.312;11.060;2023-06-10T10:31:12;31.50;43.50
10903;DHT22;5504;47.312;11.060;2023-06-10T10:33:50;31.60;47.30
10903;DHT22;5504;47.312;11.060;2023-06-10T10:36:18;31.40;44.50
10903;DHT22;5504;47.312;11.060;2023-06-10T10:38:45;30.70;45.50
10903;DHT22;5504;47.312;11.060;2023-06-10T10:41:13;30.00;47.00
10903;DHT22;5504;47.312;11.060;2023-06-10T10:43:40;29.90;46.60
10903;DHT22;5504;47.312;11.060;2023-06-10T10:46:12;29.50;46.60
10903;DHT22;5504;47.312;11.060;2023-06-10T10:48:38;29.20;47.40
10903;DHT22;5504;47.312;11.060;2023-06-10T10:51:04;29.10;49.60
10903;DHT22;5504;47.312;11.060;2023-06-10T10:53:30;28.80;47.50
10903;DHT22;5504;47.312;11.060;2023-06-10T10:56:00;28.80;46.90
10903;DHT22;5504;47.312;11.060;2023-06-10T10:58:30;28.70;51.00
10903;DHT22;5504;47.312;11.060;2023-06-10T11:00:56;28.70;50.90
10903;DHT22;5504;47.312;11.060;2023-06-10T11:03:22;28.70;49.50
10903;DHT22;5504;47.312;11.060;2023-06-10T11:05:57;28.70;49.10
10903;DHT22;5504;47.312;11.060;2023-06-10T11:10:54;28.50;50.30
10903;DHT22;5504;47.312;11.060;2023-06-10T11:13:21;28.00;46.60
10903;DHT22;5504;47.312;11.060;2023-06-10T11:15:49;28.10;48.70
10903;DHT22;5504;47.312;11.060;2023-06-10T11:18:26;28.40;52.30
10903;DHT22;5504;47.312;11.060;2023-06-10T11:20:54;28.20;49.90
10903;DHT22;5504;47.312;11.060;2023-06-10T11:26:14;28.40;47.90
10903;DHT22;5504;47.312;11.060;2023-06-10T11:28:41;28.50;48.30
10903;DHT22;5504;47.312;11.060;2023-06-10T11:31:08;28.60;48.90
10903;DHT22;5504;47.312;11.060;2023-06-10T11:33:38;28.70;47.00
10903;DHT22;5504;47.312;11.060;2023-06-10T11:36:07;28.70;46.80
10903;DHT22;5504;47.312;11.060;2023-06-10T11:38:33;28.70;47.70
10903;DHT22;5504;47.312;11.060;2023-06-10T11:40:59;28.70;48.40
10903;DHT22;5504;47.312;11.060;2023-06-10T11:43:25;28.80;48.30
10903;DHT22;5504;47.312;11.060;2023-06-10T11:45:54;29.00;49.00
10903;DHT22;5504;47.312;11.060;2023-06-10T11:48:21;28.50;46.60
10903;DHT22;5504;47.312;11.060;2023-06-10T11:50:47;28.50;45.90
10903;DHT22;5504;47.312;11.060;2023-06-10T11:53:12;28.30;44.70
10903;DHT22;5504;47.312;11.060;2023-06-10T11:55:42;28.50;46.60
10903;DHT22;5504;47.312;11.060;2023-06-10T11:58:19;28.20;42.90
10903;DHT22;5504;47.312;11.060;2023-06-10T12:00:53;28.30;44.00
10903;DHT22;5504;47.312;11.060;2023-06-10T12:03:20;28.40;45.00
10903;DHT22;5504;47.312;11.060;2023-06-10T12:06:02;28.50;42.30
10903;DHT22;5504;47.312;11.060;2023-06-10T12:08:28;28.70;46.20
10903;DHT22;5504;47.312;11.060;2023-06-10T12:10:54;29.00;44.30
10903;DHT22;5504;47.312;11.060;2023-06-10T12:13:21;29.00;43.70
10903;DHT22;5504;47.312;11.060;2023-06-10T12:15:47;28.80;44.10
10903;DHT22;5504;47.312;11.060;2023-06-10T12:20:43;28.70;45.90
10903;DHT22;5504;47.312;11.060;2023-06-10T12:23:12;28.60;45.80
10903;DHT22;5504;47.312;11.060;2023-06-10T12:25:38;28.50;46.90
10903;DHT22;5504;47.312;11.060;2023-06-10T12:28:04;29.10;47.40
10903;DHT22;5504;47.312;11.060;2023-06-10T12:30:31;29.40;46.00
10903;DHT22;5504;47.312;11.060;2023-06-10T12:32:57;30.00;47.20
10903;DHT22;5504;47.312;11.060;2023-06-10T12:35:24;30.60;45.30
10903;DHT22;5504;47.312;11.060;2023-06-10T12:38:00;30.80;43.10
10903;DHT22;5504;47.312;11.060;2023-06-10T12:40:27;30.70;44.10
10903;DHT22;5504;47.312;11.060;2023-06-10T12:42:55;30.80;43.70
10903;DHT22;5504;47.312;11.060;2023-06-10T12:45:34;31.10;45.00
10903;DHT22;5504;47.312;11.060;2023-06-10T12:48:25;31.20;43.00
10903;DHT22;5504;47.312;11.060;2023-06-10T12:50:52;30.70;43.00
10903;DHT22;5504;47.312;11.060;2023-06-10T12:53:19;30.40;43.70
10903;DHT22;5504;47.312;11.060;2023-06-10T12:55:45;30.10;45.00
10903;DHT22;5504;47.312;11.060;2023-06-10T12:58:11;29.00;44.90
10903;DHT22;5504;47.312;11.060;2023-06-10T13:00:37;28.60;47.20
10903;DHT22;5504;47.312;11.060;2023-06-10T13:03:03;28.20;47.70
10903;DHT22;5504;47.312;11.060;2023-06-10T13:05:31;27.80;47.10
10903;DHT22;5504;47.312;11.060;2023-06-10T13:07:57;27.90;47.90
10903;DHT22;5504;47.312;11.060;2023-06-10T13:10:23;27.70;48.10
10903;DHT22;5504;47.312;11.060;2023-06-10T13:12:50;27.40;48.50
10903;DHT22;5504;47.312;11.060;2023-06-10T13:15:16;27.20;48.30
10903;DHT22;5504;47.312;11.060;2023-06-10T13:17:43;27.40;49.20
10903;DHT22;5504;47.312;11.060;2023-06-10T13:20:09;27.20;49.30
10903;DHT22;5504;47.312;11.060;2023-06-10T13:22:35;27.40;48.70
10903;DHT22;5504;47.312;11.060;2023-06-10T13:25:05;27.70;49.00
10903;DHT22;5504;47.312;11.060;2023-06-10T13:27:33;27.80;48.50
10903;DHT22;5504;47.312;11.060;2023-06-10T13:29:59;28.40;47.40
10903;DHT22;5504;47.312;11.060;2023-06-10T13:32:25;28.90;46.50
10903;DHT22;5504;47.312;11.060;2023-06-10T13:34:51;29.40;46.80
10903;DHT22;5504;47.312;11.060;2023-06-10T13:37:18;29.90;45.10
10903;DHT22;5504;47.312;11.060;2023-06-10T13:39:45;29.70;44.50
10903;DHT22;5504;47.312;11.060;2023-06-10T13:42:15;29.80;46.40
10903;DHT22;5504;47.312;11.060;2023-06-10T13:44:41;29.70;46.60
10903;DHT22;5504;47.312;11.060;2023-06-10T13:47:06;29.60;46.80
10903;DHT22;5504;47.312;11.060;2023-06-10T13:49:32;29.00;45.60
10903;DHT22;5504;47.312;11.060;2023-06-10T13:51:58;28.60;46.40
10903;DHT22;5504;47.312;11.060;2023-06-10T13:54:24;28.30;46.90
10903;DHT22;5504;47.312;11.060;2023-06-10T13:56:49;27.70;47.70
10903;DHT22;5504;47.312;11.060;2023-06-10T13:59:15;27.40;48.50
10903;DHT22;5504;47.312;11.060;2023-06-10T14:01:41;27.30;50.00
10903;DHT22;5504;47.312;11.060;2023-06-10T14:04:08;27.30;50.20
10903;DHT22;5504;47.312;11.060;2023-06-10T14:06:34;27.30;50.60
10903;DHT22;5504;47.312;11.060;2023-06-10T14:09:00;27.00;49.50
10903;DHT22;5504;47.312;11.060;2023-06-10T14:11:26;27.20;50.10
10903;DHT22;5504;47.312;11.060;2023-06-10T14:13:51;27.00;50.30
10903;DHT22;5504;47.312;11.060;2023-06-10T14:16:17;27.00;50.60
10903;DHT22;5504;47.312;11.060;2023-06-10T14:18:43;27.00;50.70
10903;DHT22;5504;47.312;11.060;2023-06-10T14:21:08;26.90;49.90
10903;DHT22;5504;47.312;11.060;2023-06-10T14:23:34;26.60;49.70
10903;DHT22;5504;47.312;11.060;2023-06-10T14:26:00;26.60;50.80
10903;DHT22;5504;47.312;11.060;2023-06-10T14:28:28;26.60;51.20
10903;DHT22;5504;47.312;11.060;2023-06-10T14:30:54;26.60;51.70
10903;DHT22;5504;47.312;11.060;2023-06-10T14:33:20;26.50;51.30
10903;DHT22;5504;47.312;11.060;2023-06-10T14:35:46;26.50;51.40
10903;DHT22;5504;47.312;11.060;2023-06-10T14:38:11;26.50;51.40
10903;DHT22;5504;47.312;11.060;2023-06-10T14:40:37;26.30;51.80
10903;DHT22;5504;47.312;11.060;2023-06-10T14:43:03;26.00;51.60
10903;DHT22;5504;47.312;11.060;2023-06-10T14:45:38;26.10;52.20
10903;DHT22;5504;47.312;11.060;2023-06-10T14:48:05;26.00;52.20
10903;DHT22;5504;47.312;11.060;2023-06-10T14:50:30;26.00;52.00
10903;DHT22;5504;47.312;11.060;2023-06-10T14:52:58;25.60;51.90
10903;DHT22;5504;47.312;11.060;2023-06-10T14:55:24;25.70;53.20
10903;DHT22;5504;47.312;11.060;2023-06-10T14:57:49;25.70;52.70
10903;DHT22;5504;47.312;11.060;2023-06-10T15:00:16;25.90;52.70
10903;DHT22;5504;47.312;11.060;2023-06-10T15:02:46;25.80;52.10
10903;DHT22;5504;47.312;11.060;2023-06-10T15:05:16;25.80;52.70
10903;DHT22;5504;47.312;11.060;2023-06-10T15:07:43;25.80;52.70
10903;DHT22;5504;47.312;11.060;2023-06-10T15:10:09;25.80;52.20
10903;DHT22;5504;47.312;11.060;2023-06-10T15:12:35;26.00;53.10
10903;DHT22;5504;47.312;11.060;2023-06-10T15:15:02;26.20;54.10
10903;DHT22;5504;47.312;11.060;2023-06-10T15:17:28;25.90;50.80
10903;DHT22;5504;47.312;11.060;2023-06-10T15:19:54;25.60;51.40
10903;DHT22;5504;47.312;11.060;2023-06-10T15:22:20;25.50;54.00
10903;DHT22;5504;47.312;11.060;2023-06-10T15:24:46;25.90;53.90
10903;DHT22;5504;47.312;11.060;2023-06-10T15:27:11;26.20;57.60
10903;DHT22;5504;47.312;11.060;2023-06-10T15:29:37;26.40;57.20
10903;DHT22;5504;47.312;11.060;2023-06-10T15:32:03;26.30;51.40
10903;DHT22;5504;47.312;11.060;2023-06-10T15:34:29;26.10;51.00
10903;DHT22;5504;47.312;11.060;2023-06-10T15:36:55;26.30;52.50
10903;DHT22;5504;47.312;11.060;2023-06-10T15:39:20;26.40;51.70